createdAt,value
2017-11-30T00:00:23.477Z,0
2017-11-30T00:01:23.188Z,0
2017-11-30T00:02:23.442Z,0
2017-11-30T00:03:23.412Z,0
2017-11-30T00:04:23.407Z,0
2017-11-30T00:05:23.375Z,0
2017-11-30T00:06:23.392Z,0
2017-11-30T00:07:23.369Z,0
2017-11-30T00:08:23.092Z,0
2017-11-30T00:09:23.352Z,0
2017-11-30T00:10:23.056Z,0
2017-11-30T00:11:23.306Z,0
2017-11-30T00:12:23.281Z,0
2017-11-30T00:13:23.291Z,0
2017-11-30T00:14:23.264Z,0
2017-11-30T00:15:23.251Z,0
2017-11-30T00:16:23.251Z,0
2017-11-30T00:17:23.234Z,0
2017-11-30T00:18:23.216Z,0
2017-11-30T00:19:23.182Z,0
2017-11-30T00:20:23.186Z,0
2017-11-30T00:21:22.917Z,0
2017-11-30T00:22:23.159Z,0
2017-11-30T00:23:23.119Z,0
2017-11-30T00:24:23.129Z,0
2017-11-30T00:25:23.110Z,0
2017-11-30T00:26:23.077Z,0
2017-11-30T00:27:23.092Z,0
2017-11-30T00:28:23.080Z,0
2017-11-30T00:29:23.041Z,0
2017-11-30T00:30:23.025Z,0
2017-11-30T00:31:23.024Z,0
2017-11-30T00:32:23.013Z,0
2017-11-30T00:33:22.997Z,0
2017-11-30T00:34:22.961Z,0
2017-11-30T00:35:22.963Z,0
2017-11-30T00:36:22.950Z,0
2017-11-30T00:37:22.936Z,0
2017-11-30T00:38:22.652Z,0
2017-11-30T00:39:22.899Z,0
2017-11-30T00:40:22.888Z,0
2017-11-30T00:41:22.608Z,0
2017-11-30T00:42:22.876Z,0
2017-11-30T00:43:22.592Z,0
2017-11-30T00:44:22.821Z,0
2017-11-30T00:45:22.807Z,0
2017-11-30T00:46:22.794Z,0
2017-11-30T00:47:22.783Z,0
2017-11-30T00:48:22.762Z,0
2017-11-30T00:49:22.762Z,0
2017-11-30T00:50:22.733Z,0
2017-11-30T00:51:22.705Z,0
2017-11-30T00:52:22.717Z,0
2017-11-30T00:53:22.698Z,0
2017-11-30T00:54:22.678Z,0
2017-11-30T00:55:22.402Z,0
2017-11-30T00:56:22.377Z,0
2017-11-30T00:57:22.394Z,0
2017-11-30T00:58:22.639Z,0
2017-11-30T00:59:22.346Z,0
2017-11-30T01:00:22.593Z,0
2017-11-30T01:01:22.053Z,0
2017-11-30T01:02:22.291Z,0
2017-11-30T01:03:22.540Z,0
2017-11-30T01:04:22.531Z,0
2017-11-30T01:05:22.269Z,0
2017-11-30T01:06:22.493Z,0
2017-11-30T01:07:22.501Z,0
2017-11-30T01:08:22.485Z,0
2017-11-30T01:09:22.481Z,0
2017-11-30T01:10:22.449Z,0
2017-11-30T01:11:22.422Z,0
2017-11-30T01:12:22.405Z,0
2017-11-30T01:13:22.390Z,0
2017-11-30T01:14:22.397Z,0
2017-11-30T01:15:22.384Z,0
2017-11-30T01:16:22.376Z,0
2017-11-30T01:17:22.332Z,0
2017-11-30T01:18:22.325Z,0
2017-11-30T01:19:22.062Z,0
2017-11-30T01:20:22.288Z,0
2017-11-30T01:21:22.275Z,0
2017-11-30T01:22:22.265Z,0
2017-11-30T01:23:22.246Z,0
2017-11-30T01:24:21.966Z,0
2017-11-30T01:25:22.218Z,0
2017-11-30T01:26:22.218Z,0
2017-11-30T01:27:21.922Z,0
2017-11-30T01:28:22.164Z,0
2017-11-30T01:29:22.144Z,0
2017-11-30T01:30:22.139Z,0
2017-11-30T01:31:21.860Z,0
2017-11-30T01:32:22.108Z,0
2017-11-30T01:33:22.091Z,0
2017-11-30T01:34:22.291Z,0
2017-11-30T01:35:22.073Z,0
2017-11-30T01:36:22.041Z,0
2017-11-30T01:37:22.035Z,0
2017-11-30T01:38:22.003Z,0
2017-11-30T01:39:21.993Z,0
2017-11-30T01:40:21.993Z,0
2017-11-30T01:41:21.961Z,0
2017-11-30T01:42:21.706Z,0
2017-11-30T01:43:21.941Z,0
2017-11-30T01:44:21.917Z,0
2017-11-30T01:45:21.648Z,0
2017-11-30T01:46:21.624Z,0
2017-11-30T01:47:21.903Z,0
2017-11-30T01:48:21.592Z,0
2017-11-30T01:49:21.844Z,0
2017-11-30T01:50:21.825Z,0
2017-11-30T01:51:21.612Z,0
2017-11-30T01:52:21.838Z,0
2017-11-30T01:53:21.812Z,0
2017-11-30T01:54:21.504Z,0
2017-11-30T01:55:21.772Z,0
2017-11-30T01:56:21.739Z,0
2017-11-30T01:57:21.730Z,0
2017-11-30T01:58:21.733Z,0
2017-11-30T01:59:21.424Z,0
2017-11-30T02:00:21.710Z,0
2017-11-30T02:01:21.673Z,0
2017-11-30T02:02:21.656Z,0
2017-11-30T02:03:21.636Z,0
2017-11-30T02:04:21.631Z,0
2017-11-30T02:05:21.615Z,0
2017-11-30T02:06:21.626Z,0
2017-11-30T02:07:21.583Z,0
2017-11-30T02:08:21.583Z,0
2017-11-30T02:09:21.547Z,0
2017-11-30T02:10:21.532Z,0
2017-11-30T02:11:21.521Z,0
2017-11-30T02:12:21.503Z,0
2017-11-30T02:13:21.501Z,0
2017-11-30T02:14:21.484Z,0
2017-11-30T02:15:21.466Z,0
2017-11-30T02:16:21.449Z,0
2017-11-30T02:17:21.429Z,0
2017-11-30T02:18:21.475Z,0
2017-11-30T02:19:21.400Z,0
2017-11-30T02:20:21.377Z,0
2017-11-30T02:21:21.364Z,0
2017-11-30T02:22:21.369Z,0
2017-11-30T02:23:21.347Z,0
2017-11-30T02:24:21.333Z,0
2017-11-30T02:25:21.312Z,0
2017-11-30T02:26:21.305Z,0
2017-11-30T02:27:21.282Z,0
2017-11-30T02:28:21.278Z,0
2017-11-30T02:29:21.284Z,0
2017-11-30T02:30:21.247Z,0
2017-11-30T02:31:21.215Z,0
2017-11-30T02:32:21.022Z,0
2017-11-30T02:33:21.209Z,0
2017-11-30T02:34:21.231Z,0
2017-11-30T02:35:21.196Z,0
2017-11-30T02:36:21.160Z,0
2017-11-30T02:37:21.163Z,0
2017-11-30T02:38:21.132Z,0
2017-11-30T02:39:21.128Z,0
2017-11-30T02:40:21.118Z,0
2017-11-30T02:41:21.106Z,0
2017-11-30T02:42:21.084Z,0
2017-11-30T02:43:21.123Z,0
2017-11-30T02:44:21.060Z,0
2017-11-30T02:45:21.048Z,0
2017-11-30T02:46:21.066Z,0
2017-11-30T02:47:21.006Z,0
2017-11-30T02:48:20.731Z,0
2017-11-30T02:49:20.979Z,0
2017-11-30T02:50:20.970Z,0
2017-11-30T02:51:20.970Z,0
2017-11-30T02:52:20.944Z,0
2017-11-30T02:53:20.941Z,0
2017-11-30T02:54:20.636Z,0
2017-11-30T02:55:20.913Z,0
2017-11-30T02:56:20.631Z,0
2017-11-30T02:57:20.850Z,0
2017-11-30T02:58:20.853Z,0
2017-11-30T02:59:20.834Z,0
2017-11-30T03:00:20.814Z,0
2017-11-30T03:01:20.830Z,0
2017-11-30T03:02:20.799Z,0
2017-11-30T03:03:20.815Z,0
2017-11-30T03:04:20.783Z,0
2017-11-30T03:05:20.745Z,0
2017-11-30T03:06:20.739Z,0
2017-11-30T03:07:20.469Z,0
2017-11-30T03:08:20.724Z,0
2017-11-30T03:09:20.699Z,0
2017-11-30T03:10:20.679Z,0
2017-11-30T03:11:20.677Z,0
2017-11-30T03:12:20.643Z,0
2017-11-30T03:13:20.651Z,0
2017-11-30T03:14:20.628Z,0
2017-11-30T03:15:20.350Z,0
2017-11-30T03:16:20.592Z,0
2017-11-30T03:17:20.590Z,0
2017-11-30T03:18:20.561Z,0
2017-11-30T03:19:20.559Z,0
2017-11-30T03:20:20.549Z,0
2017-11-30T03:21:20.531Z,0
2017-11-30T03:22:20.527Z,0
2017-11-30T03:23:20.502Z,0
2017-11-30T03:24:20.500Z,0
2017-11-30T03:25:20.212Z,0
2017-11-30T03:26:20.197Z,0
2017-11-30T03:27:20.436Z,0
2017-11-30T03:28:20.435Z,0
2017-11-30T03:29:20.412Z,0
2017-11-30T03:30:20.420Z,0
2017-11-30T03:31:20.392Z,0
2017-11-30T03:32:20.384Z,0
2017-11-30T03:33:20.354Z,0
2017-11-30T03:34:20.352Z,0
2017-11-30T03:35:20.337Z,0
2017-11-30T03:36:20.626Z,0
2017-11-30T03:37:20.040Z,0
2017-11-30T03:38:20.298Z,0
2017-11-30T03:39:20.283Z,0
2017-11-30T03:40:20.267Z,0
2017-11-30T03:41:20.243Z,0
2017-11-30T03:42:19.981Z,0
2017-11-30T03:43:20.218Z,0
2017-11-30T03:44:20.207Z,0
2017-11-30T03:45:20.213Z,0
2017-11-30T03:46:19.925Z,0
2017-11-30T03:47:20.174Z,0
2017-11-30T03:48:20.158Z,0
2017-11-30T03:49:20.174Z,0
2017-11-30T03:50:19.849Z,0
2017-11-30T03:51:19.858Z,0
2017-11-30T03:52:20.105Z,0
2017-11-30T03:53:19.816Z,0
2017-11-30T03:54:20.073Z,0
2017-11-30T03:55:20.047Z,0
2017-11-30T03:56:19.779Z,0
2017-11-30T03:57:20.032Z,0
2017-11-30T03:58:20.016Z,0
2017-11-30T03:59:20.019Z,0
2017-11-30T04:00:19.728Z,0
2017-11-30T04:01:19.968Z,0
2017-11-30T04:02:19.957Z,0
2017-11-30T04:03:19.951Z,0
2017-11-30T04:04:19.936Z,0
2017-11-30T04:05:19.927Z,0
2017-11-30T04:06:19.907Z,0
2017-11-30T04:07:19.887Z,0
2017-11-30T04:08:19.881Z,0
2017-11-30T04:09:19.857Z,0
2017-11-30T04:10:19.863Z,0
2017-11-30T04:11:19.854Z,0
2017-11-30T04:12:19.848Z,0
2017-11-30T04:13:19.803Z,0
2017-11-30T04:14:19.785Z,0
2017-11-30T04:15:19.784Z,0
2017-11-30T04:16:19.769Z,0
2017-11-30T04:17:19.755Z,0
2017-11-30T04:18:19.733Z,0
2017-11-30T04:19:19.717Z,0
2017-11-30T04:20:19.718Z,0
2017-11-30T04:21:19.730Z,0
2017-11-30T04:22:19.698Z,0
2017-11-30T04:23:19.657Z,0
2017-11-30T04:24:19.672Z,0
2017-11-30T04:25:19.652Z,0
2017-11-30T04:26:19.637Z,0
2017-11-30T04:27:19.612Z,0
2017-11-30T04:28:19.624Z,0
2017-11-30T04:29:19.588Z,0
2017-11-30T04:30:19.571Z,0
2017-11-30T04:31:19.043Z,0
2017-11-30T04:32:19.587Z,0
2017-11-30T04:33:19.553Z,0
2017-11-30T04:34:19.522Z,0
2017-11-30T04:35:19.507Z,0
2017-11-30T04:36:19.501Z,0
2017-11-30T04:37:19.502Z,0
2017-11-30T04:38:19.479Z,0
2017-11-30T04:39:19.464Z,0
2017-11-30T04:40:19.455Z,0
2017-11-30T04:41:19.450Z,0
2017-11-30T04:42:19.439Z,0
2017-11-30T04:43:19.406Z,0
2017-11-30T04:44:19.128Z,0
2017-11-30T04:45:19.388Z,0
2017-11-30T04:46:19.359Z,0
2017-11-30T04:47:19.376Z,0
2017-11-30T04:48:19.342Z,0
2017-11-30T04:49:19.341Z,0
2017-11-30T04:50:19.315Z,0
2017-11-30T04:51:19.299Z,0
2017-11-30T04:52:19.301Z,0
2017-11-30T04:53:19.270Z,0
2017-11-30T04:54:19.258Z,0
2017-11-30T04:55:19.248Z,0
2017-11-30T04:56:19.229Z,0
2017-11-30T04:57:19.222Z,0
2017-11-30T04:58:19.189Z,0
2017-11-30T04:59:19.201Z,0
2017-11-30T05:00:19.185Z,0
2017-11-30T05:01:19.162Z,0
2017-11-30T05:02:19.171Z,0
2017-11-30T05:03:19.139Z,0
2017-11-30T05:04:19.128Z,0
2017-11-30T05:05:19.107Z,0
2017-11-30T05:06:19.101Z,0
2017-11-30T05:07:18.830Z,0
2017-11-30T05:08:19.092Z,0
2017-11-30T05:09:18.803Z,0
2017-11-30T05:10:19.053Z,0
2017-11-30T05:11:19.041Z,0
2017-11-30T05:12:19.026Z,0
2017-11-30T05:13:19.035Z,0
2017-11-30T05:14:18.991Z,0
2017-11-30T05:15:18.998Z,0
2017-11-30T05:16:18.965Z,0
2017-11-30T05:17:18.962Z,0
2017-11-30T05:18:18.920Z,0
2017-11-30T05:19:18.931Z,16
2017-11-30T05:20:18.931Z,32
2017-11-30T05:21:18.904Z,36
2017-11-30T05:22:18.631Z,40
2017-11-30T05:23:18.860Z,40
2017-11-30T05:24:18.892Z,40
2017-11-30T05:25:18.840Z,40
2017-11-30T05:26:18.574Z,44
2017-11-30T05:27:18.564Z,44
2017-11-30T05:28:18.810Z,44
2017-11-30T05:29:18.803Z,44
2017-11-30T05:30:18.520Z,44
2017-11-30T05:31:18.764Z,44
2017-11-30T05:32:18.494Z,44
2017-11-30T05:33:18.757Z,44
2017-11-30T05:34:18.710Z,44
2017-11-30T05:35:18.720Z,44
2017-11-30T05:36:18.706Z,44
2017-11-30T05:37:18.438Z,44
2017-11-30T05:38:18.683Z,44
2017-11-30T05:39:18.659Z,44
2017-11-30T05:40:18.384Z,44
2017-11-30T05:41:18.627Z,44
2017-11-30T05:42:18.624Z,44
2017-11-30T05:43:18.595Z,44
2017-11-30T05:44:18.632Z,44
2017-11-30T05:45:18.591Z,44
2017-11-30T05:46:18.304Z,0
2017-11-30T05:47:18.559Z,0
2017-11-30T05:48:18.281Z,0
2017-11-30T05:49:18.545Z,0
2017-11-30T05:50:18.514Z,0
2017-11-30T05:51:18.527Z,0
2017-11-30T05:52:18.486Z,0
2017-11-30T05:53:18.477Z,0
2017-11-30T05:54:18.214Z,0
2017-11-30T05:55:18.467Z,0
2017-11-30T05:56:18.446Z,0
2017-11-30T05:57:18.436Z,0
2017-11-30T05:58:18.394Z,0
2017-11-30T05:59:18.410Z,0
2017-11-30T06:00:18.374Z,0
2017-11-30T06:01:18.384Z,0
2017-11-30T06:02:18.347Z,0
2017-11-30T06:03:18.352Z,0
2017-11-30T06:04:18.321Z,0
2017-11-30T06:05:18.312Z,0
2017-11-30T06:06:18.337Z,0
2017-11-30T06:07:18.298Z,0
2017-11-30T06:08:18.275Z,0
2017-11-30T06:09:18.261Z,0
2017-11-30T06:10:18.272Z,0
2017-11-30T06:11:18.247Z,0
2017-11-30T06:12:18.253Z,0
2017-11-30T06:13:18.204Z,0
2017-11-30T06:14:18.225Z,0
2017-11-30T06:15:18.213Z,0
2017-11-30T06:16:18.202Z,0
2017-11-30T06:17:18.163Z,0
2017-11-30T06:18:18.142Z,0
2017-11-30T06:19:18.149Z,0
2017-11-30T06:20:17.865Z,0
2017-11-30T06:21:18.105Z,0
2017-11-30T06:22:18.089Z,0
2017-11-30T06:23:17.818Z,0
2017-11-30T06:24:17.808Z,4
2017-11-30T06:25:18.058Z,4
2017-11-30T06:26:17.772Z,0
2017-11-30T06:27:18.024Z,4
2017-11-30T06:28:18.023Z,4
2017-11-30T06:29:18.003Z,4
2017-11-30T06:30:18.000Z,8
2017-11-30T06:31:17.731Z,8
2017-11-30T06:32:17.981Z,8
2017-11-30T06:33:17.955Z,8
2017-11-30T06:34:17.680Z,8
2017-11-30T06:35:17.421Z,8
2017-11-30T06:36:17.644Z,12
2017-11-30T06:37:17.952Z,12
2017-11-30T06:38:17.889Z,16
2017-11-30T06:39:17.865Z,16
2017-11-30T06:40:17.851Z,20
2017-11-30T06:41:17.857Z,24
2017-11-30T06:42:17.832Z,24
2017-11-30T06:43:17.830Z,28
2017-11-30T06:44:17.808Z,32
2017-11-30T06:45:17.796Z,36
2017-11-30T06:46:17.789Z,40
2017-11-30T06:47:18.019Z,44
2017-11-30T06:48:17.767Z,52
2017-11-30T06:49:17.744Z,60
2017-11-30T06:50:17.720Z,64
2017-11-30T06:51:17.712Z,68
2017-11-30T06:52:17.736Z,76
2017-11-30T06:53:17.449Z,84
2017-11-30T06:54:17.713Z,92
2017-11-30T06:55:17.676Z,96
2017-11-30T06:56:17.668Z,108
2017-11-30T06:57:17.690Z,116
2017-11-30T06:58:17.647Z,124
2017-11-30T06:59:17.606Z,132
2017-11-30T07:00:17.601Z,144
2017-11-30T07:01:17.595Z,152
2017-11-30T07:02:17.565Z,168
2017-11-30T07:03:17.545Z,184
2017-11-30T07:04:17.550Z,208
2017-11-30T07:05:17.517Z,228
2017-11-30T07:06:17.528Z,252
2017-11-30T07:07:17.519Z,276
2017-11-30T07:08:17.508Z,300
2017-11-30T07:09:17.477Z,324
2017-11-30T07:10:17.687Z,352
2017-11-30T07:11:17.456Z,388
2017-11-30T07:12:17.195Z,420
2017-11-30T07:13:17.575Z,452
2017-11-30T07:14:17.474Z,472
2017-11-30T07:15:17.396Z,492
2017-11-30T07:16:17.375Z,528
2017-11-30T07:17:17.110Z,580
2017-11-30T07:18:17.369Z,632
2017-11-30T07:19:17.372Z,700
2017-11-30T07:20:17.080Z,760
2017-11-30T07:21:17.328Z,820
2017-11-30T07:22:17.325Z,896
2017-11-30T07:23:17.304Z,980
2017-11-30T07:24:17.302Z,1052
2017-11-30T07:25:17.262Z,1104
2017-11-30T07:26:17.260Z,1164
2017-11-30T07:27:17.248Z,1220
2017-11-30T07:28:16.985Z,1268
2017-11-30T07:29:16.962Z,1292
2017-11-30T07:30:16.936Z,1308
2017-11-30T07:31:16.923Z,1308
2017-11-30T07:32:17.228Z,1344
2017-11-30T07:33:16.912Z,1396
2017-11-30T07:34:17.009Z,1460
2017-11-30T07:35:17.136Z,1528
2017-11-30T07:36:17.125Z,1596
2017-11-30T07:37:17.117Z,1644
2017-11-30T07:38:17.109Z,1680
2017-11-30T07:39:17.116Z,1776
2017-11-30T07:40:17.072Z,1816
2017-11-30T07:41:17.110Z,1828
2017-11-30T07:42:17.035Z,1836
2017-11-30T07:43:17.026Z,1872
2017-11-30T07:44:17.014Z,1920
2017-11-30T07:45:16.999Z,1968
2017-11-30T07:46:17.013Z,1984
2017-11-30T07:47:16.728Z,2012
2017-11-30T07:48:16.963Z,2040
2017-11-30T07:49:16.976Z,2080
2017-11-30T07:50:16.965Z,2100
2017-11-30T07:51:17.192Z,2132
2017-11-30T07:52:16.648Z,2168
2017-11-30T07:53:16.895Z,2208
2017-11-30T07:54:16.888Z,2252
2017-11-30T07:55:16.879Z,2272
2017-11-30T07:56:16.844Z,2300
2017-11-30T07:57:16.601Z,2364
2017-11-30T07:58:16.908Z,2412
2017-11-30T07:59:16.819Z,2468
2017-11-30T08:00:16.806Z,2548
2017-11-30T08:01:16.780Z,2604
2017-11-30T08:02:16.523Z,2668
2017-11-30T08:03:16.764Z,2684
2017-11-30T08:04:16.498Z,2772
2017-11-30T08:05:16.761Z,2820
2017-11-30T08:06:16.481Z,2888
2017-11-30T08:07:16.453Z,2968
2017-11-30T08:08:16.715Z,2980
2017-11-30T08:09:16.702Z,3060
2017-11-30T08:10:16.703Z,3052
2017-11-30T08:11:16.678Z,2996
2017-11-30T08:12:16.702Z,2876
2017-11-30T08:13:16.374Z,2812
2017-11-30T08:14:16.620Z,2804
2017-11-30T08:15:16.613Z,2808
2017-11-30T08:16:16.600Z,2864
2017-11-30T08:17:16.598Z,2932
2017-11-30T08:18:16.578Z,2960
2017-11-30T08:19:16.568Z,2972
2017-11-30T08:20:16.558Z,2916
2017-11-30T08:21:16.556Z,2816
2017-11-30T08:22:16.531Z,2768
2017-11-30T08:23:16.517Z,2752
2017-11-30T08:24:16.515Z,2760
2017-11-30T08:25:16.487Z,2764
2017-11-30T08:26:16.482Z,2836
2017-11-30T08:27:16.513Z,2928
2017-11-30T08:28:16.191Z,2992
2017-11-30T08:29:16.420Z,3084
2017-11-30T08:30:16.436Z,3160
2017-11-30T08:31:16.430Z,3204
2017-11-30T08:32:16.426Z,3200
2017-11-30T08:33:16.388Z,3152
2017-11-30T08:34:16.388Z,3076
2017-11-30T08:35:16.454Z,3012
2017-11-30T08:36:16.346Z,2980
2017-11-30T08:37:16.073Z,2996
2017-11-30T08:38:16.345Z,3016
2017-11-30T08:39:16.306Z,3080
2017-11-30T08:40:16.330Z,3212
2017-11-30T08:41:16.298Z,3344
2017-11-30T08:42:16.269Z,3472
2017-11-30T08:43:16.244Z,3528
2017-11-30T08:44:15.998Z,3516
2017-11-30T08:45:16.264Z,3588
2017-11-30T08:46:16.237Z,3816
2017-11-30T08:47:15.938Z,4044
2017-11-30T08:48:15.652Z,4320
2017-11-30T08:49:16.186Z,4484
2017-11-30T08:50:16.189Z,4652
2017-11-30T08:51:16.152Z,4600
2017-11-30T08:52:16.147Z,4576
2017-11-30T08:53:16.434Z,4436
2017-11-30T08:54:16.138Z,4396
2017-11-30T08:55:15.855Z,4232
2017-11-30T08:56:15.825Z,4168
2017-11-30T08:57:16.072Z,4148
2017-11-30T08:58:16.042Z,4092
2017-11-30T08:59:15.777Z,4084
2017-11-30T09:00:15.809Z,4108
2017-11-30T09:01:15.779Z,4124
2017-11-30T09:02:16.024Z,4156
2017-11-30T09:03:16.079Z,4216
2017-11-30T09:04:16.028Z,4288
2017-11-30T09:05:15.729Z,4384
2017-11-30T09:06:15.741Z,4492
2017-11-30T09:07:15.951Z,4624
2017-11-30T09:08:16.016Z,4724
2017-11-30T09:09:15.912Z,4848
2017-11-30T09:10:15.952Z,4968
2017-11-30T09:11:15.654Z,5048
2017-11-30T09:12:15.918Z,5116
2017-11-30T09:13:15.960Z,5204
2017-11-30T09:14:15.958Z,5220
2017-11-30T09:15:15.996Z,5200
2017-11-30T09:16:16.238Z,5128
2017-11-30T09:17:16.503Z,4952
2017-11-30T09:18:15.955Z,4800
2017-11-30T09:19:15.906Z,4720
2017-11-30T09:20:15.750Z,4616
2017-11-30T09:21:15.780Z,4548
2017-11-30T09:22:15.995Z,4676
2017-11-30T09:23:15.796Z,4804
2017-11-30T09:24:15.771Z,4912
2017-11-30T09:25:15.723Z,5112
2017-11-30T09:26:15.770Z,5272
2017-11-30T09:27:15.693Z,5372
2017-11-30T09:28:15.467Z,5448
2017-11-30T09:29:15.765Z,5544
2017-11-30T09:30:15.674Z,5668
2017-11-30T09:31:15.464Z,5832
2017-11-30T09:32:15.656Z,5952
2017-11-30T09:33:15.638Z,5900
2017-11-30T09:34:15.607Z,5908
2017-11-30T09:35:15.609Z,5972
2017-11-30T09:36:15.315Z,6264
2017-11-30T09:37:15.662Z,6488
2017-11-30T09:38:15.645Z,6600
2017-11-30T09:39:15.618Z,6548
2017-11-30T09:40:15.534Z,6324
2017-11-30T09:41:15.622Z,6116
2017-11-30T09:42:15.517Z,5900
2017-11-30T09:43:15.500Z,5684
2017-11-30T09:44:15.509Z,5548
2017-11-30T09:45:15.593Z,5548
2017-11-30T09:46:15.526Z,5640
2017-11-30T09:47:15.260Z,5816
2017-11-30T09:48:15.470Z,5972
2017-11-30T09:49:15.419Z,6004
2017-11-30T09:50:15.446Z,6088
2017-11-30T09:51:15.424Z,6140
2017-11-30T09:52:15.829Z,6200
2017-11-30T09:53:15.406Z,6196
2017-11-30T09:54:15.373Z,6124
2017-11-30T09:55:15.390Z,5976
2017-11-30T09:56:15.087Z,5800
2017-11-30T09:57:15.339Z,5836
2017-11-30T09:58:15.558Z,5724
2017-11-30T09:59:15.339Z,5780
2017-11-30T10:00:15.319Z,5884
2017-11-30T10:01:15.501Z,6036
2017-11-30T10:02:15.273Z,6160
2017-11-30T10:03:15.563Z,6304
2017-11-30T10:04:15.277Z,6264
2017-11-30T10:05:15.266Z,6080
2017-11-30T10:06:15.197Z,5876
2017-11-30T10:07:15.198Z,5736
2017-11-30T10:08:14.928Z,5748
2017-11-30T10:09:15.174Z,5668
2017-11-30T10:10:15.317Z,5656
2017-11-30T10:11:15.201Z,5784
2017-11-30T10:12:15.150Z,5948
2017-11-30T10:13:15.157Z,6116
2017-11-30T10:14:15.685Z,6196
2017-11-30T10:15:15.136Z,6332
2017-11-30T10:16:15.092Z,6528
2017-11-30T10:17:15.172Z,6764
2017-11-30T10:18:15.083Z,6972
2017-11-30T10:19:15.078Z,7156
2017-11-30T10:20:15.097Z,7204
2017-11-30T10:21:15.054Z,7104
2017-11-30T10:22:15.037Z,7056
2017-11-30T10:23:15.038Z,7104
2017-11-30T10:24:15.025Z,7140
2017-11-30T10:25:14.734Z,7208
2017-11-30T10:26:15.017Z,7176
2017-11-30T10:27:14.738Z,7152
2017-11-30T10:28:14.980Z,6956
2017-11-30T10:29:14.945Z,6748
2017-11-30T10:30:14.936Z,6612
2017-11-30T10:31:14.943Z,6468
2017-11-30T10:32:14.965Z,6308
2017-11-30T10:33:14.936Z,6184
2017-11-30T10:34:14.945Z,5916
2017-11-30T10:35:14.889Z,5568
2017-11-30T10:36:14.902Z,5228
2017-11-30T10:37:14.878Z,4952
2017-11-30T10:38:14.618Z,4740
2017-11-30T10:39:14.888Z,4584
2017-11-30T10:40:14.855Z,4520
2017-11-30T10:41:14.987Z,4480
2017-11-30T10:42:14.844Z,4568
2017-11-30T10:43:14.852Z,4768
2017-11-30T10:44:14.836Z,4980
2017-11-30T10:45:14.513Z,5248
2017-11-30T10:46:14.779Z,5432
2017-11-30T10:47:14.787Z,5392
2017-11-30T10:48:14.516Z,5516
2017-11-30T10:49:14.808Z,5636
2017-11-30T10:50:14.756Z,5792
2017-11-30T10:51:14.753Z,5920
2017-11-30T10:52:14.790Z,6052
2017-11-30T10:53:14.596Z,6156
2017-11-30T10:54:15.142Z,6232
2017-11-30T10:55:15.001Z,6448
2017-11-30T10:56:15.650Z,6596
2017-11-30T10:57:14.890Z,6560
2017-11-30T10:58:14.780Z,6628
2017-11-30T10:59:14.456Z,6636
2017-11-30T11:00:14.808Z,6612
2017-11-30T11:01:14.788Z,6644
2017-11-30T11:02:14.826Z,6532
2017-11-30T11:03:14.722Z,6424
2017-11-30T11:04:14.232Z,6248
2017-11-30T11:05:14.742Z,6100
2017-11-30T11:06:14.767Z,5968
2017-11-30T11:07:14.633Z,5892
2017-11-30T11:08:14.413Z,5852
2017-11-30T11:09:14.680Z,5940
2017-11-30T11:10:14.542Z,6040
2017-11-30T11:11:14.594Z,6144
2017-11-30T11:12:14.618Z,6300
2017-11-30T11:13:14.619Z,6320
2017-11-30T11:14:14.577Z,6424
2017-11-30T11:15:14.552Z,6292
2017-11-30T11:16:14.513Z,6264
2017-11-30T11:17:14.592Z,6244
2017-11-30T11:18:14.452Z,6320
2017-11-30T11:19:14.163Z,6224
2017-11-30T11:20:14.206Z,6132
2017-11-30T11:21:14.138Z,6268
2017-11-30T11:22:14.480Z,6584
2017-11-30T11:23:14.158Z,6908
2017-11-30T11:24:14.145Z,7040
2017-11-30T11:25:14.426Z,7044
2017-11-30T11:26:14.073Z,7016
2017-11-30T11:27:14.309Z,6960
2017-11-30T11:28:14.465Z,7004
2017-11-30T11:29:14.662Z,7076
2017-11-30T11:30:14.403Z,6976
2017-11-30T11:31:14.392Z,6924
2017-11-30T11:32:14.402Z,6972
2017-11-30T11:33:14.198Z,6900
2017-11-30T11:34:14.000Z,6956
2017-11-30T11:35:14.253Z,6996
2017-11-30T11:36:14.232Z,7004
2017-11-30T11:37:14.223Z,7036
2017-11-30T11:38:14.214Z,7052
2017-11-30T11:39:14.209Z,7100
2017-11-30T11:40:14.202Z,7240
2017-11-30T11:41:14.225Z,7256
2017-11-30T11:42:13.928Z,7072
2017-11-30T11:43:13.978Z,6748
2017-11-30T11:44:13.962Z,6412
2017-11-30T11:45:14.196Z,6040
2017-11-30T11:46:14.234Z,5772
2017-11-30T11:47:14.221Z,5504
2017-11-30T11:48:13.647Z,5220
2017-11-30T11:49:14.200Z,5164
2017-11-30T11:50:13.889Z,5116
2017-11-30T11:51:14.082Z,5108
2017-11-30T11:52:13.825Z,5128
2017-11-30T11:53:14.074Z,5208
2017-11-30T11:54:14.067Z,5100
2017-11-30T11:55:14.037Z,4972
2017-11-30T11:56:14.091Z,4912
2017-11-30T11:57:14.063Z,4864
2017-11-30T11:58:14.002Z,4752
2017-11-30T11:59:13.996Z,4672
2017-11-30T12:00:14.000Z,4508
2017-11-30T12:01:14.004Z,4412
2017-11-30T12:02:13.437Z,4388
2017-11-30T12:03:14.027Z,4332
2017-11-30T12:04:13.663Z,4256
2017-11-30T12:05:13.911Z,4176
2017-11-30T12:06:13.656Z,4144
2017-11-30T12:07:13.916Z,4132
2017-11-30T12:08:13.890Z,4164
2017-11-30T12:09:13.889Z,4168
2017-11-30T12:10:13.876Z,4216
2017-11-30T12:11:13.879Z,4244
2017-11-30T12:12:13.861Z,4292
2017-11-30T12:13:13.898Z,4308
2017-11-30T12:14:13.812Z,4256
2017-11-30T12:15:13.598Z,4156
2017-11-30T12:16:13.813Z,4080
2017-11-30T12:17:13.849Z,4084
2017-11-30T12:18:13.811Z,4136
2017-11-30T12:19:13.513Z,4252
2017-11-30T12:20:13.790Z,4348
2017-11-30T12:21:13.940Z,4348
2017-11-30T12:22:13.623Z,4348
2017-11-30T12:23:13.825Z,4340
2017-11-30T12:24:13.553Z,4224
2017-11-30T12:25:13.817Z,4128
2017-11-30T12:26:14.319Z,4168
2017-11-30T12:27:13.833Z,4260
2017-11-30T12:28:13.825Z,4340
2017-11-30T12:29:14.057Z,4348
2017-11-30T12:30:13.523Z,4300
2017-11-30T12:31:13.697Z,4240
2017-11-30T12:32:13.733Z,4172
2017-11-30T12:33:13.981Z,4120
2017-11-30T12:34:13.174Z,4128
2017-11-30T12:35:13.604Z,4188
2017-11-30T12:36:13.312Z,4312
2017-11-30T12:37:13.408Z,4432
2017-11-30T12:38:13.702Z,4500
2017-11-30T12:39:13.426Z,4780
2017-11-30T12:40:13.699Z,5016
2017-11-30T12:41:13.669Z,5096
2017-11-30T12:42:13.667Z,4728
2017-11-30T12:43:13.262Z,4444
2017-11-30T12:44:13.494Z,4344
2017-11-30T12:45:13.515Z,4340
2017-11-30T12:46:13.564Z,4216
2017-11-30T12:47:13.443Z,4172
2017-11-30T12:48:13.496Z,4468
2017-11-30T12:49:13.858Z,4600
2017-11-30T12:50:13.174Z,4208
2017-11-30T12:51:13.197Z,3752
2017-11-30T12:52:13.523Z,3528
2017-11-30T12:53:13.386Z,3428
2017-11-30T12:54:13.384Z,3428
2017-11-30T12:55:13.342Z,3332
2017-11-30T12:56:13.103Z,3260
2017-11-30T12:57:13.051Z,3192
2017-11-30T12:58:13.034Z,3124
2017-11-30T12:59:13.316Z,3080
2017-11-30T13:00:13.292Z,3084
2017-11-30T13:01:13.310Z,3064
2017-11-30T13:02:13.249Z,3008
2017-11-30T13:03:13.233Z,2972
2017-11-30T13:04:13.266Z,2960
2017-11-30T13:05:13.244Z,2976
2017-11-30T13:06:12.979Z,3028
2017-11-30T13:07:12.926Z,3084
2017-11-30T13:08:13.192Z,3116
2017-11-30T13:09:13.180Z,3152
2017-11-30T13:10:12.982Z,3212
2017-11-30T13:11:13.195Z,3200
2017-11-30T13:12:13.183Z,3168
2017-11-30T13:13:12.865Z,3144
2017-11-30T13:14:12.848Z,3140
2017-11-30T13:15:12.872Z,3116
2017-11-30T13:16:12.593Z,3092
2017-11-30T13:17:13.092Z,3120
2017-11-30T13:18:12.796Z,3216
2017-11-30T13:19:13.081Z,3360
2017-11-30T13:20:13.049Z,3488
2017-11-30T13:21:13.020Z,3540
2017-11-30T13:22:12.746Z,3508
2017-11-30T13:23:12.739Z,3500
2017-11-30T13:24:13.225Z,3412
2017-11-30T13:25:13.021Z,3456
2017-11-30T13:26:12.996Z,3520
2017-11-30T13:27:12.965Z,3404
2017-11-30T13:28:12.733Z,3360
2017-11-30T13:29:12.918Z,3264
2017-11-30T13:30:12.937Z,3136
2017-11-30T13:31:12.986Z,3012
2017-11-30T13:32:12.632Z,2892
2017-11-30T13:33:12.953Z,2832
2017-11-30T13:34:12.614Z,2796
2017-11-30T13:35:13.062Z,2736
2017-11-30T13:36:12.842Z,2660
2017-11-30T13:37:12.920Z,2588
2017-11-30T13:38:12.609Z,2536
2017-11-30T13:39:12.826Z,2500
2017-11-30T13:40:12.781Z,2480
2017-11-30T13:41:12.553Z,2452
2017-11-30T13:42:12.770Z,2440
2017-11-30T13:43:12.762Z,2436
2017-11-30T13:44:12.771Z,2432
2017-11-30T13:45:12.459Z,2420
2017-11-30T13:46:12.755Z,2416
2017-11-30T13:47:12.803Z,2396
2017-11-30T13:48:12.465Z,2380
2017-11-30T13:49:13.131Z,2348
2017-11-30T13:50:12.448Z,2300
2017-11-30T13:51:12.413Z,2264
2017-11-30T13:52:12.421Z,2224
2017-11-30T13:53:12.378Z,2200
2017-11-30T13:54:12.626Z,2200
2017-11-30T13:55:12.659Z,2204
2017-11-30T13:56:12.597Z,2208
2017-11-30T13:57:12.588Z,2200
2017-11-30T13:58:12.326Z,2188
2017-11-30T13:59:12.586Z,2176